aviador You're here:

LKPD Decoded Metar

PARDUBICE in CZECH REPUBLIC
Report Time2017-11-21 04:00:00
UTC Time2017-11-21 04:31:25
Flight Rules mvfr MVFR
Wind100° at 03 kt
W.Decomp.*RWY 09: 3.0 kt HW 0.4 kt RCW
W.Rank100° ranks 5
Current wind is below 100° avg. (5.1)
Visibility9999 m
Phenomena:Light Rain
Clouds:Overcast 016 Hf
Ceiling1,600 ft
Temp02°C (ISA -12)
Dew Point02°C (100% RH)
AAT-0.8°C
QNH1012 hPa
Density Alt-525 ft
Elevation741 ft
Report Wrong Elevation
Raw Report
LKPD 210400Z 10003KT 9999 -RA OVC016 02/02 Q1012 NOSIG RMK WHT=

Extra information for LKPD:More info

Metar Taf Metar & Taf Last 4 Metars F.Rules Stats Wind Profile Meteogram Temp Stats Airport Information Weather charts Add Link Nearby VenuesMetar ALERT Operation Metar Decoded Social comments